Time;durP1;ratioP1;P1;durP2;ratioP2;P2;SDS_P1;SDS_P2;PMS_P1;PMS_P2;Temp;Humidity;BMP_temperature;BMP_pressure;BME280_temperature;BME280_humidity;BME280_pressure;Samples;Min_cycle;Max_cycle;Signal;HPM_P1;HPM_P2
2024/05/02 00:01:22;;;;;;;14.15;9.82;;;;;;;17.93;100.00;100153.34;5416735;25;94462;-80
2024/05/02 00:03:47;;;;;;;12.43;9.05;;;;;;;17.93;100.00;100144.53;5422071;25;94632;-79
2024/05/02 00:06:13;;;;;;;14.15;8.30;;;;;;;17.88;100.00;100139.59;5391715;25;96616;-80
2024/05/02 00:08:38;;;;;;;13.75;8.55;;;;;;;17.93;100.00;100152.53;5389236;25;93972;-80
2024/05/02 00:11:04;;;;;;;11.68;8.43;;;;;;;17.80;100.00;100126.09;5390721;25;94067;-80
2024/05/02 00:13:29;;;;;;;15.63;8.93;;;;;;;17.83;100.00;100136.47;5392096;25;94364;-80
2024/05/02 00:15:55;;;;;;;12.18;8.57;;;;;;;17.89;100.00;100143.09;5396479;25;94584;-80
2024/05/02 00:18:20;;;;;;;12.77;8.73;;;;;;;17.86;100.00;100141.53;5384341;26;94010;-80
2024/05/02 00:20:45;;;;;;;12.88;8.52;;;;;;;17.83;100.00;100138.28;5387065;26;94039;-79
2024/05/02 00:23:11;;;;;;;13.02;8.75;;;;;;;17.79;100.00;100133.19;5385827;26;94425;-80
2024/05/02 00:25:36;;;;;;;12.70;8.60;;;;;;;17.78;100.00;100134.19;5388004;25;94335;-80
2024/05/02 00:28:01;;;;;;;12.45;8.43;;;;;;;17.66;100.00;100123.69;5386043;26;94281;-80
2024/05/02 00:30:27;;;;;;;11.88;8.25;;;;;;;17.76;100.00;100140.63;5381407;25;97747;-80
2024/05/02 00:32:52;;;;;;;13.93;9.20;;;;;;;17.73;100.00;100128.38;5385115;26;97093;-80
2024/05/02 00:35:17;;;;;;;11.57;8.48;;;;;;;17.68;100.00;100132.38;5388139;26;96222;-80
2024/05/02 00:37:43;;;;;;;13.98;8.65;;;;;;;17.66;100.00;100131.69;5391003;26;93949;-79
2024/05/02 00:40:08;;;;;;;15.82;8.48;;;;;;;17.62;100.00;100136.41;5388017;26;93977;-80
2024/05/02 00:42:35;;;;;;;11.50;8.18;;;;;;;17.55;100.00;100124.59;5381469;26;94404;-80
2024/05/02 00:45:03;;;;;;;13.57;9.02;;;;;;;17.59;100.00;100134.00;5387424;26;97434;-80
2024/05/02 00:47:28;;;;;;;14.30;8.68;;;;;;;17.56;100.00;100137.78;5385557;26;94058;-80
2024/05/02 00:49:54;;;;;;;12.07;7.88;;;;;;;17.57;100.00;100141.28;5384602;26;94537;-80
2024/05/02 00:52:19;;;;;;;10.98;8.20;;;;;;;17.47;100.00;100119.91;5387656;26;95625;-80
2024/05/02 00:54:44;;;;;;;12.27;7.88;;;;;;;17.47;100.00;100127.88;5386676;25;95664;-80
2024/05/02 00:57:13;;;;;;;13.45;8.32;;;;;;;17.49;100.00;100120.63;5386670;26;93979;-80
2024/05/02 00:59:41;;;;;;;12.95;8.15;;;;;;;17.48;100.00;100129.56;5386975;26;93867;-80
2024/05/02 01:02:06;;;;;;;14.27;8.48;;;;;;;17.42;100.00;100121.25;5387505;26;95206;-80
2024/05/02 01:04:32;;;;;;;12.82;7.68;;;;;;;17.47;100.00;100133.19;5388177;26;95495;-80
2024/05/02 01:06:57;;;;;;;12.52;7.97;;;;;;;17.46;100.00;100134.19;5385400;25;93899;-80
2024/05/02 01:09:22;;;;;;;12.93;8.45;;;;;;;17.44;100.00;100133.44;5383324;26;98412;-80
2024/05/02 01:11:49;;;;;;;13.57;8.40;;;;;;;17.36;100.00;100127.91;5387338;25;95502;-80
2024/05/02 01:14:14;;;;;;;13.10;8.75;;;;;;;17.37;100.00;100128.75;5387728;26;94356;-80
2024/05/02 01:16:39;;;;;;;13.48;8.23;;;;;;;17.30;100.00;100123.97;5386949;26;93945;-79
2024/05/02 01:19:05;;;;;;;14.02;8.20;;;;;;;17.40;100.00;100136.50;5424486;25;94064;-80
2024/05/02 01:21:30;;;;;;;12.20;8.55;;;;;;;17.33;100.00;100120.19;5420981;25;102810;-80
2024/05/02 01:23:56;;;;;;;12.50;8.32;;;;;;;17.28;100.00;100125.88;5398474;25;94450;-79
2024/05/02 01:26:21;;;;;;;15.63;9.00;;;;;;;17.31;100.00;100133.63;5385953;25;93793;-80
2024/05/02 01:28:46;;;;;;;15.85;7.55;;;;;;;17.20;100.00;100124.81;5423965;25;93909;-80
2024/05/02 01:31:12;;;;;;;13.65;9.27;;;;;;;17.18;100.00;100126.75;5385447;25;96893;-79
2024/05/02 01:33:37;;;;;;;11.00;8.07;;;;;;;17.11;100.00;100118.44;5423536;25;95839;-80
2024/05/02 01:36:03;;;;;;;11.95;9.35;;;;;;;17.01;100.00;100118.34;5424240;25;94409;-80
2024/05/02 01:38:28;;;;;;;13.93;8.82;;;;;;;17.06;100.00;100134.75;5390771;25;94833;-80
2024/05/02 01:40:54;;;;;;;13.90;8.82;;;;;;;17.04;100.00;100142.03;5393873;25;94457;-80
2024/05/02 01:43:19;;;;;;;13.82;8.73;;;;;;;16.93;100.00;100123.44;5418149;25;94719;-80
2024/05/02 01:45:45;;;;;;;11.35;7.45;;;;;;;16.91;100.00;100124.50;5420646;25;93882;-80
2024/05/02 01:48:11;;;;;;;13.60;8.23;;;;;;;16.98;100.00;100144.31;5403711;25;93985;-80
2024/05/02 01:50:37;;;;;;;15.73;8.68;;;;;;;16.90;100.00;100136.97;5423947;25;94409;-80
2024/05/02 01:53:02;;;;;;;12.40;7.55;;;;;;;16.83;100.00;100123.34;5391487;25;96884;-80
2024/05/02 01:55:27;;;;;;;15.07;8.50;;;;;;;16.94;100.00;100145.53;5391839;25;93942;-80
2024/05/02 01:57:54;;;;;;;12.68;7.65;;;;;;;16.95;100.00;100139.25;5388947;25;93944;-80
2024/05/02 02:00:19;;;;;;;13.63;7.88;;;;;;;16.84;100.00;100119.69;5388911;25;94379;-86
2024/05/02 02:02:44;;;;;;;12.50;7.63;;;;;;;16.79;100.00;100110.38;5419346;25;96014;-86
2024/05/02 02:05:10;;;;;;;12.40;7.53;;;;;;;16.81;100.00;100121.75;5391556;25;94044;-85
2024/05/02 02:07:35;;;;;;;14.68;8.02;;;;;;;16.81;100.00;100122.59;5423318;25;94182;-86
2024/05/02 02:10:00;;;;;;;11.43;8.15;;;;;;;16.78;100.00;100111.38;5426950;25;94392;-85
2024/05/02 02:12:26;;;;;;;12.60;8.23;;;;;;;16.86;100.00;100132.88;5423990;25;95771;-86
2024/05/02 02:14:51;;;;;;;11.75;8.13;;;;;;;16.84;100.00;100135.66;5390053;25;100409;-85
2024/05/02 02:17:16;;;;;;;18.50;8.23;;;;;;;16.74;100.00;100116.06;5428209;25;94861;-85
2024/05/02 02:19:42;;;;;;;10.75;7.80;;;;;;;16.63;100.00;100108.09;5423784;25;94222;-85
2024/05/02 02:22:07;;;;;;;12.18;8.02;;;;;;;16.68;100.00;100113.03;5435092;25;94550;-84
2024/05/02 02:24:32;;;;;;;14.00;7.80;;;;;;;16.62;100.00;100109.06;5406253;25;93938;-85
2024/05/02 02:26:58;;;;;;;13.25;8.05;;;;;;;16.63;100.00;100108.09;5391347;25;94025;-85
2024/05/02 02:29:23;;;;;;;12.15;8.68;;;;;;;16.69;100.00;100130.69;5423430;25;94986;-86
2024/05/02 02:31:49;;;;;;;13.60;8.50;;;;;;;16.68;100.00;100127.19;5399679;25;96387;-85
2024/05/02 02:34:14;;;;;;;13.70;9.10;;;;;;;16.60;100.00;100118.94;5430023;25;96520;-84
2024/05/02 02:36:39;;;;;;;12.95;8.85;;;;;;;16.46;100.00;100098.78;5398859;25;93943;-85
2024/05/02 02:39:05;;;;;;;13.68;7.72;;;;;;;16.48;100.00;100109.28;5424969;25;95969;-85
2024/05/02 02:41:30;;;;;;;13.48;8.52;;;;;;;16.45;100.00;100101.56;5427774;25;95085;-84
2024/05/02 02:43:55;;;;;;;12.35;7.65;;;;;;;16.44;100.00;100095.41;5424996;25;93915;-85
2024/05/02 02:46:22;;;;;;;16.02;8.57;;;;;;;16.39;100.00;100086.13;5395215;25;94121;-85
2024/05/02 02:48:49;;;;;;;15.00;8.55;;;;;;;16.42;100.00;100107.13;5392648;25;94375;-85
2024/05/02 02:51:15;;;;;;;11.10;8.05;;;;;;;16.47;100.00;100108.44;5436745;25;94408;-85
2024/05/02 02:53:40;;;;;;;13.25;8.43;;;;;;;16.44;100.00;100106.03;5394065;25;94123;-86
2024/05/02 02:56:07;;;;;;;13.27;8.52;;;;;;;16.38;100.00;100081.78;5395942;25;93924;-85
2024/05/02 02:58:32;;;;;;;13.05;7.88;;;;;;;16.45;100.00;100105.09;5389514;25;94743;-85
2024/05/02 03:00:58;;;;;;;11.90;8.40;;;;;;;16.45;100.00;100090.94;5425416;25;94673;-85
2024/05/02 03:03:23;;;;;;;11.23;7.88;;;;;;;16.41;100.00;100084.16;5423871;25;93893;-85
2024/05/02 03:05:48;;;;;;;14.88;8.82;;;;;;;16.31;100.00;100070.78;5424383;25;94470;-85
2024/05/02 03:08:13;;;;;;;12.77;8.27;;;;;;;16.37;100.00;100086.22;5427262;25;98691;-85
2024/05/02 03:10:39;;;;;;;11.13;7.93;;;;;;;16.26;100.00;100067.66;5426991;25;111037;-85
2024/05/02 03:13:04;;;;;;;10.93;7.82;;;;;;;16.26;100.00;100068.50;5392551;25;93848;-85
2024/05/02 03:15:30;;;;;;;12.40;8.50;;;;;;;16.25;100.00;100064.13;5426627;25;94044;-85
2024/05/02 03:17:55;;;;;;;13.77;8.27;;;;;;;16.26;100.00;100065.84;5384293;26;94375;-85
2024/05/02 03:20:20;;;;;;;11.60;8.20;;;;;;;16.32;100.00;100077.78;5386883;26;94631;-85
2024/05/02 03:22:45;;;;;;;10.68;7.60;;;;;;;16.20;100.00;100057.50;5390014;25;93914;-85
2024/05/02 03:25:12;;;;;;;13.68;8.13;;;;;;;16.24;100.00;100062.44;5389503;25;94910;-85
2024/05/02 03:27:37;;;;;;;12.30;7.32;;;;;;;16.27;100.00;100066.69;5384290;26;96763;-85
2024/05/02 03:30:09;;;;;;;10.57;7.65;;;;;;;16.27;100.00;100069.34;5388917;25;94341;-85
2024/05/02 03:32:35;;;;;;;10.98;7.07;;;;;;;16.21;100.00;100059.19;5388019;26;93730;-84
2024/05/02 03:35:00;;;;;;;12.50;7.35;;;;;;;16.04;100.00;100041.91;5386843;26;93876;-84
2024/05/02 03:37:26;;;;;;;11.90;7.57;;;;;;;16.02;100.00;100041.19;5383373;26;96451;-85
2024/05/02 03:39:52;;;;;;;14.50;8.05;;;;;;;16.04;100.00;100048.06;5387445;25;94681;-85
2024/05/02 03:42:17;;;;;;;12.55;8.18;;;;;;;15.98;100.00;100040.56;5388492;26;94001;-85
2024/05/02 03:44:42;;;;;;;12.77;7.95;;;;;;;15.98;100.00;100042.38;5389318;26;93807;-84
2024/05/02 03:47:08;;;;;;;12.75;7.97;;;;;;;16.01;100.00;100048.31;5388823;26;94319;-85
2024/05/02 03:49:33;;;;;;;11.13;7.32;;;;;;;15.98;100.00;100039.72;5400763;25;94214;-85
2024/05/02 03:51:59;;;;;;;11.68;7.22;;;;;;;16.02;100.00;100044.66;5407142;26;93960;-84
2024/05/02 03:54:24;;;;;;;11.30;7.18;;;;;;;16.01;100.00;100055.44;5400128;26;94083;-84
2024/05/02 03:56:49;;;;;;;12.48;7.70;;;;;;;15.96;100.00;100042.50;5395797;25;94350;-86
2024/05/02 03:59:15;;;;;;;13.70;7.57;;;;;;;15.89;100.00;100033.31;5386474;26;96083;-84
2024/05/02 04:01:41;;;;;;;13.30;7.43;;;;;;;15.98;100.00;100045.03;5388946;26;93868;-84
2024/05/02 04:04:06;;;;;;;11.80;7.32;;;;;;;15.96;100.00;100047.81;5391507;25;93889;-84
2024/05/02 04:06:32;;;;;;;12.02;7.82;;;;;;;15.93;100.00;100047.22;5389850;26;94350;-85
2024/05/02 04:08:58;;;;;;;13.13;7.35;;;;;;;16.01;100.00;100050.94;5386304;25;94659;-79
2024/05/02 04:11:23;;;;;;;11.93;7.28;;;;;;;15.89;100.00;100035.13;5387913;26;102206;-79
2024/05/02 04:13:48;;;;;;;11.60;7.50;;;;;;;16.00;100.00;100053.75;5384934;26;94100;-79
2024/05/02 04:16:13;;;;;;;12.88;6.97;;;;;;;15.98;100.00;100061.81;5389606;25;94706;-80
2024/05/02 04:18:39;;;;;;;10.35;7.13;;;;;;;15.95;100.00;100051.44;5410606;25;97743;-84
2024/05/02 04:21:04;;;;;;;10.15;7.45;;;;;;;15.88;100.00;100036.97;5389726;25;94488;-84
2024/05/02 04:23:30;;;;;;;12.23;6.78;;;;;;;15.87;100.00;100043.22;5425304;25;93915;-84
2024/05/02 04:25:55;;;;;;;11.75;7.22;;;;;;;15.92;100.00;100059.66;5393175;25;96566;-84
2024/05/02 04:28:21;;;;;;;15.65;6.85;;;;;;;15.84;100.00;100043.47;5425389;25;94741;-84
2024/05/02 04:30:46;;;;;;;11.13;7.13;;;;;;;15.82;100.00;100043.56;5425123;25;93967;-84
2024/05/02 04:33:11;;;;;;;10.30;7.00;;;;;;;15.92;100.00;100066.78;5426538;25;94123;-84
2024/05/02 04:35:36;;;;;;;12.60;6.65;;;;;;;15.89;100.00;100059.03;5396500;25;95194;-84
2024/05/02 04:38:11;;;;;;;9.77;6.30;;;;;;;15.87;100.00;100056.47;5418513;25;97132;-84
2024/05/02 04:40:36;;;;;;;16.92;7.40;;;;;;;15.83;100.00;100055.03;5419260;25;93885;-84
2024/05/02 04:43:02;;;;;;;9.07;6.10;;;;;;;15.88;100.00;100062.66;5424218;25;93786;-84
2024/05/02 04:45:27;;;;;;;11.20;6.55;;;;;;;15.77;100.00;100043.09;5419586;25;94456;-84
2024/05/02 04:47:53;;;;;;;12.23;6.22;;;;;;;15.85;100.00;100059.25;5394336;25;94606;-83
2024/05/02 04:50:18;;;;;;;8.75;5.85;;;;;;;15.89;100.00;100057.22;5391643;25;93835;-84
2024/05/02 04:52:44;;;;;;;10.35;5.93;;;;;;;15.84;100.00;100052.28;5390114;25;94047;-84
2024/05/02 04:55:09;;;;;;;12.07;6.47;;;;;;;15.80;100.00;100039.34;5421364;25;95890;-84
2024/05/02 04:57:34;;;;;;;9.07;6.10;;;;;;;15.95;100.00;100063.84;5390891;25;115534;-84
2024/05/02 05:00:01;;;;;;;8.85;5.63;;;;;;;15.88;100.00;100060.00;5384792;25;94033;-84
2024/05/02 05:02:26;;;;;;;10.93;6.45;;;;;;;15.98;100.00;100076.91;5422889;25;94180;-84
2024/05/02 05:04:51;;;;;;;12.55;6.43;;;;;;;15.99;100.00;100074.16;5424613;25;96968;-84
2024/05/02 05:07:17;;;;;;;9.80;5.60;;;;;;;15.93;100.00;100065.78;5359200;25;96327;-83
2024/05/02 05:09:42;;;;;;;10.20;5.97;;;;;;;15.96;100.00;100066.41;5425405;25;93876;-84
2024/05/02 05:12:10;;;;;;;8.48;6.07;;;;;;;15.97;100.00;100054.81;5425403;25;94057;-84
2024/05/02 05:14:35;;;;;;;12.20;6.10;;;;;;;16.02;100.00;100042.00;5422746;25;94551;-84
2024/05/02 05:17:02;;;;;;;8.75;5.53;;;;;;;16.17;100.00;100065.69;5388139;25;94340;-84
2024/05/02 05:19:27;;;;;;;8.20;5.90;;;;;;;16.17;100.00;100053.25;5424156;25;93830;-80
2024/05/02 05:21:53;;;;;;;7.78;5.38;;;;;;;16.22;100.00;100047.56;5421620;25;96422;-79
2024/05/02 05:24:18;;;;;;;10.73;5.90;;;;;;;16.25;100.00;100056.16;5422624;25;94436;-79
2024/05/02 05:26:43;;;;;;;8.00;5.40;;;;;;;16.32;100.00;100065.34;5421808;25;94664;-79
2024/05/02 05:29:09;;;;;;;7.75;5.00;;;;;;;16.26;100.00;100057.03;5422891;25;93870;-84
2024/05/02 05:31:34;;;;;;;7.95;5.03;;;;;;;16.36;100.00;100072.09;5423650;25;94061;-84
2024/05/02 05:33:59;;;;;;;12.18;5.93;;;;;;;16.32;100.00;100062.69;5432883;25;96128;-84
2024/05/02 05:36:25;;;;;;;10.50;5.30;;;;;;;16.32;100.00;100070.66;5388764;25;94552;-84
2024/05/02 05:38:50;;;;;;;7.72;4.85;;;;;;;16.36;100.00;100084.53;5390880;25;93903;-84
2024/05/02 05:41:18;;;;;;;7.68;4.63;;;;;;;16.50;100.00;100110.03;5424507;25;94077;-83
2024/05/02 05:43:43;;;;;;;9.57;5.38;;;;;;;16.53;100.00;100107.97;5388542;25;94540;-84
2024/05/02 05:46:08;;;;;;;9.40;4.95;;;;;;;16.61;100.00;100102.06;5429303;25;96076;-84
2024/05/02 05:48:34;;;;;;;13.38;5.80;;;;;;;16.55;100.00;100071.47;5391968;25;94100;-84
2024/05/02 05:50:59;;;;;;;7.75;4.65;;;;;;;16.63;100.00;100075.34;5425235;25;93899;-84
2024/05/02 05:53:25;;;;;;;9.63;5.07;;;;;;;16.78;100.00;100074.16;5394485;25;95497;-84
2024/05/02 05:55:51;;;;;;;7.40;4.70;;;;;;;16.90;100.00;100069.66;5390087;25;97212;-84
2024/05/02 05:58:16;;;;;;;6.65;4.03;;;;;;;16.99;100.00;100071.56;5421345;25;93797;-84
2024/05/02 06:00:42;;;;;;;9.57;4.18;;;;;;;17.16;100.00;100073.69;5411228;25;95004;-83
2024/05/02 06:03:10;;;;;;;7.53;4.03;;;;;;;17.19;100.00;100056.63;5421911;25;95862;-84
2024/05/02 06:05:36;;;;;;;8.30;3.90;;;;;;;17.47;100.00;100079.97;5422773;25;95579;-84
2024/05/02 06:08:04;;;;;;;8.85;4.07;;;;;;;17.49;100.00;100066.56;5423983;25;93880;-84
2024/05/02 06:10:29;;;;;;;8.02;3.95;;;;;;;17.70;100.00;100085.19;5388507;25;94034;-84
2024/05/02 06:12:54;;;;;;;9.85;4.25;;;;;;;17.78;100.00;100082.75;5391466;25;94621;-85
2024/05/02 06:15:20;;;;;;;7.22;3.92;;;;;;;17.69;100.00;100062.22;5421570;25;94510;-84
2024/05/02 06:17:45;;;;;;;7.82;3.95;;;;;;;17.80;100.00;100073.66;5427598;25;93929;-85
2024/05/02 06:20:11;;;;;;;8.63;4.50;;;;;;;17.80;100.00;100071.00;5393180;25;94002;-84
2024/05/02 06:22:36;;;;;;;7.07;3.42;;;;;;;17.87;100.00;100070.47;5424218;25;94438;-85
2024/05/02 06:25:01;;;;;;;8.38;3.67;;;;;;;18.01;100.00;100078.97;5427541;25;94378;-85
2024/05/02 06:27:27;;;;;;;7.85;3.78;;;;;;;17.90;100.00;100057.72;5391672;25;93834;-86
2024/05/02 06:29:53;;;;;;;8.60;3.58;;;;;;;18.02;100.00;100080.66;5421658;25;94136;-80
2024/05/02 06:32:18;;;;;;;13.10;3.97;;;;;;;18.03;100.00;100077.03;5422553;25;94307;-80
2024/05/02 06:34:43;;;;;;;8.63;3.75;;;;;;;17.99;100.00;100067.63;5393510;25;94536;-80
2024/05/02 06:37:09;;;;;;;9.82;5.07;;;;;;;18.17;100.00;100085.66;5428018;25;93986;-81
2024/05/02 06:39:35;;;;;;;7.68;3.83;;;;;;;18.18;100.00;100079.34;5426037;25;94635;-80
2024/05/02 06:42:00;;;;;;;5.85;3.58;;;;;;;18.19;100.00;100055.22;5393022;25;97193;-81
2024/05/02 06:44:26;;;;;;;8.07;3.60;;;;;;;18.38;100.00;100064.28;5394467;25;94677;-80
2024/05/02 06:46:51;;;;;;;6.85;3.90;;;;;;;18.52;100.00;100074.56;5426517;25;93895;-80
2024/05/02 06:49:16;;;;;;;8.13;3.28;;;;;;;18.59;100.00;100065.06;5422155;25;94180;-81
2024/05/02 06:51:43;;;;;;;8.20;3.55;;;;;;;18.58;100.00;100043.88;5437056;25;95981;-80
2024/05/02 06:54:09;;;;;;;9.27;3.72;;;;;;;18.74;100.00;100047.72;5393075;25;96893;-80
2024/05/02 06:56:34;;;;;;;8.02;3.80;;;;;;;18.73;100.00;100038.06;5426616;25;93828;-80
2024/05/02 06:58:59;;;;;;;7.20;3.50;;;;;;;18.89;100.00;100045.53;5393846;25;94038;-81
2024/05/02 07:01:24;;;;;;;11.30;4.55;;;;;;;18.95;100.00;100039.63;5397174;25;94431;-81
2024/05/02 07:03:50;;;;;;;7.65;3.67;;;;;;;18.94;100.00;100010.41;5394376;25;99256;-81
2024/05/02 07:06:15;;;;;;;6.00;3.17;;;;;;;19.06;100.00;100021.78;5389389;25;93811;-80
2024/05/02 07:08:40;;;;;;;9.38;3.38;;;;;;;19.10;100.00;100026.72;5428668;25;94418;-80
2024/05/02 07:11:06;;;;;;;10.13;3.80;;;;;;;19.24;100.00;100028.97;5430181;25;94422;-81
2024/05/02 07:13:32;;;;;;;7.97;3.25;;;;;;;19.30;100.00;100032.06;5422130;25;94691;-80
2024/05/02 07:15:57;;;;;;;6.78;3.35;;;;;;;19.37;100.00;100019.81;5422782;25;93925;-81
2024/05/02 07:18:23;;;;;;;13.00;3.75;;;;;;;19.49;100.00;100035.56;5385998;26;94005;-79
2024/05/02 07:20:49;;;;;;;10.15;4.00;;;;;;;19.59;100.00;100029.38;5389823;26;95705;-81
2024/05/02 07:23:14;;;;;;;8.13;3.13;;;;;;;19.64;100.00;100027.13;5386956;26;94766;-80
2024/05/02 07:25:39;;;;;;;7.07;3.55;;;;;;;19.74;100.00;100025.28;5387613;26;94117;-81
2024/05/02 07:28:07;;;;;;;7.32;3.40;;;;;;;19.77;100.00;100005.47;5385938;26;94038;-80
2024/05/02 07:30:33;;;;;;;6.65;3.63;;;;;;;19.90;100.00;100014.00;5385411;26;94796;-80
2024/05/02 07:32:58;;;;;;;7.40;3.35;;;;;;;19.97;100.00;100005.25;5390836;25;94694;-80
2024/05/02 07:35:28;;;;;;;9.70;3.47;;;;;;;20.07;100.00;99999.06;5391699;26;94436;-81
2024/05/02 07:37:54;;;;;;;8.52;3.53;;;;;;;20.16;100.00;100001.66;5384210;26;94787;-81
2024/05/02 07:40:19;;;;;;;8.73;3.92;;;;;;;20.22;100.00;100001.09;5389640;25;94388;-86
2024/05/02 07:42:44;;;;;;;8.05;3.45;;;;;;;20.21;100.00;99978.00;5386619;25;94595;-87
2024/05/02 07:45:10;;;;;;;8.85;3.53;;;;;;;20.21;100.00;99961.97;5389977;25;93779;-85
2024/05/02 07:47:35;;;;;;;7.40;3.90;;;;;;;20.38;100.00;99989.75;5388262;26;94047;-86
2024/05/02 07:50:01;;;;;;;6.47;3.75;;;;;;;20.43;100.00;99986.63;5386683;26;94388;-80
2024/05/02 07:52:27;;;;;;;8.05;3.30;;;;;;;20.49;100.00;99994.09;5383916;26;94801;-80
2024/05/02 07:54:52;;;;;;;11.98;3.90;;;;;;;20.47;100.00;99994.19;5387672;26;94838;-81
2024/05/02 07:57:17;;;;;;;6.75;3.70;;;;;;;20.63;100.00;100009.59;5391364;26;93902;-80
2024/05/02 07:59:42;;;;;;;8.05;3.60;;;;;;;20.70;100.00;100009.84;5387035;26;107568;-81
2024/05/02 08:02:11;;;;;;;6.85;3.22;;;;;;;20.78;100.00;100006.44;5389080;26;94353;-80
2024/05/02 08:04:36;;;;;;;9.93;3.58;;;;;;;20.80;100.00;100010.66;5383706;26;116394;-80
2024/05/02 08:07:02;;;;;;;7.07;3.55;;;;;;;20.84;100.00;100011.19;5386688;26;94967;-80
2024/05/02 08:09:27;;;;;;;6.65;3.50;;;;;;;20.85;100.00;99994.97;5385660;26;94778;-80
2024/05/02 08:11:53;;;;;;;12.13;3.83;;;;;;;21.00;100.00;99995.28;5389661;26;94106;-80
2024/05/02 08:14:18;;;;;;;6.20;2.92;;;;;;;21.12;100.00;99996.72;5385959;26;94727;-81
2024/05/02 08:16:44;;;;;;;5.72;3.00;;;;;;;21.18;100.00;99988.09;5388938;26;93972;-80
2024/05/02 08:19:09;;;;;;;9.05;3.67;;;;;;;21.32;100.00;100002.75;5423338;25;94081;-81
2024/05/02 08:21:35;;;;;;;7.20;3.78;;;;;;;21.27;100.00;99980.97;5391744;25;94994;-81
2024/05/02 08:24:00;;;;;;;7.45;3.33;;;;;;;21.41;100.00;99995.69;5425193;25;93848;-81
2024/05/02 08:26:25;;;;;;;6.55;3.42;;;;;;;21.47;100.00;99995.03;5424260;25;93890;-80
2024/05/02 08:28:50;;;;;;;9.45;3.30;;;;;;;21.60;100.00;100011.56;5422795;25;109817;-81
2024/05/02 08:31:16;;;;;;;6.05;3.42;;;;;;;21.65;100.00;100000.38;5396985;25;108516;-81
2024/05/02 08:33:41;;;;;;;5.43;3.15;;;;;;;21.75;100.00;100001.06;5397943;25;93780;-80
2024/05/02 08:36:06;;;;;;;6.57;3.00;;;;;;;21.78;100.00;99986.53;5426874;25;96124;-81
2024/05/02 08:38:32;;;;;;;10.65;4.10;;;;;;;21.94;100.00;100006.22;5422257;25;94534;-80
2024/05/02 08:40:58;;;;;;;6.55;3.38;;;;;;;22.02;100.00;99999.22;5424402;25;94522;-80
2024/05/02 08:43:24;;;;;;;10.73;3.70;;;;;;;22.18;100.00;100010.09;5392192;25;110163;-81
2024/05/02 08:45:52;;;;;;;6.88;3.67;;;;;;;22.20;100.00;99996.50;5392960;25;93948;-80
2024/05/02 08:48:22;;;;;;;8.50;4.18;;;;;;;22.27;100.00;99994.88;5423529;25;94774;-81
2024/05/02 08:50:48;;;;;;;8.85;3.53;;;;;;;22.44;100.00;100007.31;5423839;25;95048;-81
2024/05/02 08:53:15;;;;;;;7.95;3.30;;;;;;;22.55;100.00;100011.56;5390031;25;93847;-80
2024/05/02 08:55:41;;;;;;;8.35;3.53;;;;;;;22.60;100.00;100006.53;5391330;25;96088;-80
2024/05/02 08:58:07;;;;;;;10.10;3.35;;;;;;;22.65;100.00;100001.53;5394072;25;94911;-81
2024/05/02 09:00:33;;;;;;;7.30;3.28;;;;;;;22.65;100.00;99988.13;5425110;25;94410;-80
2024/05/02 09:03:00;;;;;;;11.73;3.72;;;;;;;22.82;100.00;100007.78;5424053;25;93840;-81
2024/05/02 09:05:26;;;;;;;8.13;3.15;;;;;;;22.75;100.00;99980.75;5425994;25;93865;-81
2024/05/02 09:07:52;;;;;;;9.45;4.00;;;;;;;22.96;100.00;99998.28;5393376;25;94373;-80
2024/05/02 09:10:17;;;;;;;8.45;4.00;;;;;;;23.01;100.00;99999.44;5420553;25;94406;-80
2024/05/02 09:12:47;;;;;;;8.13;3.15;;;;;;;22.99;100.00;99989.91;5423795;25;93985;-81
2024/05/02 09:15:12;;;;;;;5.50;3.78;;;;;;;23.05;100.00;99991.91;5391881;25;93934;-81
2024/05/02 09:17:38;;;;;;;7.57;3.70;;;;;;;23.05;100.00;99991.91;5422756;25;95690;-81
2024/05/02 09:20:08;;;;;;;9.07;3.65;;;;;;;23.14;100.00;99998.97;5422145;25;94539;-81
2024/05/02 09:22:34;;;;;;;7.95;3.70;;;;;;;23.27;100.00;99999.31;5421265;25;94024;-80
2024/05/02 09:24:59;;;;;;;8.00;3.58;;;;;;;23.30;100.00;99995.44;5423355;25;94117;-81
2024/05/02 09:27:43;;;;;;;4.95;3.05;;;;;;;23.31;100.00;99983.69;5389370;25;94613;-81
2024/05/02 09:30:10;;;;;;;9.70;3.50;;;;;;;23.49;100.00;99989.72;5422722;25;94991;-81
2024/05/02 09:32:36;;;;;;;7.38;3.83;;;;;;;23.56;100.00;99985.34;5423165;25;95459;-81
2024/05/02 09:35:02;;;;;;;7.45;4.13;;;;;;;23.56;100.00;99973.75;5425105;25;94238;-80
2024/05/02 09:37:43;;;;;;;9.55;3.88;;;;;;;23.67;100.00;99991.41;5423110;25;94200;-81
2024/05/02 09:40:15;;;;;;;6.13;3.40;;;;;;;23.69;100.00;99984.84;5424250;25;94773;-81
2024/05/02 09:42:48;;;;;;;12.40;3.45;;;;;;;23.74;100.00;99995.09;5423300;25;93849;-81
2024/05/02 09:45:19;;;;;;;6.07;2.88;;;;;;;23.87;100.00;100000.78;5425133;25;94035;-81
2024/05/02 09:47:53;;;;;;;6.43;3.20;;;;;;;23.93;100.00;100000.09;5430888;25;94764;-80
2024/05/02 09:50:24;;;;;;;5.50;2.90;;;;;;;23.99;100.00;100001.25;5422581;25;94450;-81
2024/05/02 09:52:51;;;;;;;11.27;3.63;;;;;;;24.00;100.00;99998.38;5398664;25;93995;-81
2024/05/02 09:55:18;;;;;;;8.93;3.67;;;;;;;24.07;100.00;99999.38;5390840;25;94057;-81
2024/05/02 09:57:46;;;;;;;9.50;4.18;;;;;;;24.03;100.00;99997.22;5393229;25;94747;-81
2024/05/02 10:00:12;;;;;;;8.07;3.15;;;;;;;24.00;100.00;100006.47;5394223;25;94675;-80
2024/05/02 10:02:38;;;;;;;12.00;3.70;;;;;;;23.98;100.00;100007.63;5426592;25;93947;-80
2024/05/02 10:05:06;;;;;;;7.78;4.35;;;;;;;24.04;100.00;100013.16;5424225;25;93906;-80
2024/05/02 10:07:35;;;;;;;10.38;3.55;;;;;;;24.08;100.00;100019.03;5425951;25;94151;-80
2024/05/02 10:10:10;;;;;;;8.65;3.58;;;;;;;24.11;100.00;100019.53;5424852;25;94495;-79
2024/05/02 10:12:47;;;;;;;6.22;3.63;;;;;;;24.16;100.00;100012.81;5423914;25;113089;-79
2024/05/02 10:15:19;;;;;;;8.65;3.95;;;;;;;24.21;100.00;100000.50;5365556;25;95304;-79
2024/05/02 10:17:44;;;;;;;10.50;3.40;;;;;;;24.32;100.00;99999.28;5419842;25;95007;-79
2024/05/02 10:20:11;;;;;;;7.53;4.07;;;;;;;24.52;100.00;100002.41;5423911;25;94467;-79
2024/05/02 10:22:37;;;;;;;7.70;3.95;;;;;;;24.55;100.00;100007.44;5427002;25;93883;-80
2024/05/02 10:25:04;;;;;;;12.82;4.03;;;;;;;24.40;100.00;99985.81;5420427;25;94826;-81
2024/05/02 10:27:32;;;;;;;9.10;3.90;;;;;;;24.48;100.00;100003.78;5422915;25;94436;-80
2024/05/02 10:29:58;;;;;;;8.63;4.05;;;;;;;24.57;100.00;100006.25;5423360;25;94529;-79
2024/05/02 10:32:24;;;;;;;6.70;3.50;;;;;;;24.71;100.00;99996.59;5418753;25;93967;-80
2024/05/02 10:34:49;;;;;;;14.05;4.22;;;;;;;24.69;100.00;99990.56;5423199;25;94603;-80
2024/05/02 10:37:18;;;;;;;8.43;4.68;;;;;;;24.89;100.00;100006.25;5424152;25;94142;-80
2024/05/02 10:39:43;;;;;;;7.05;3.42;;;;;;;24.92;100.00;99990.56;5422620;25;94392;-80
2024/05/02 10:42:10;;;;;;;10.55;4.65;;;;;;;24.98;100.00;99987.16;5427058;25;94881;-80
2024/05/02 10:44:35;;;;;;;6.63;3.47;;;;;;;25.05;100.00;99987.28;5430910;25;93986;-80
2024/05/02 10:47:07;;;;;;;7.28;4.32;;;;;;;25.22;100.00;99996.94;5400392;25;96260;-79
2024/05/02 10:49:36;;;;;;;13.38;5.13;;;;;;;25.32;100.00;99992.13;5421889;25;94549;-80
2024/05/02 10:52:07;;;;;;;7.90;4.68;;;;;;;25.42;100.00;99993.75;5422959;25;93861;-80
2024/05/02 10:54:34;;;;;;;8.75;4.60;;;;;;;25.44;100.00;99997.91;5424741;25;94057;-80
2024/05/02 10:56:59;;;;;;;7.88;4.18;;;;;;;25.47;100.00;99994.88;5422694;25;94438;-79
2024/05/02 10:59:25;;;;;;;8.50;4.05;;;;;;;25.51;100.00;99996.19;5425424;25;98179;-79
2024/05/02 11:01:51;;;;;;;10.77;4.68;;;;;;;25.54;100.00;99997.69;5392766;25;108444;-80
2024/05/02 11:04:18;;;;;;;9.35;4.20;;;;;;;25.54;100.00;99989.59;5390582;25;94119;-79
2024/05/02 11:06:45;;;;;;;10.32;4.10;;;;;;;25.75;100.00;100005.91;5389688;25;94703;-79
2024/05/02 11:09:12;;;;;;;10.93;5.18;;;;;;;25.88;100.00;99999.91;5425608;25;94542;-79